createdAt,value
2018-03-18T00:00:10.548Z,99.90
2018-03-18T00:02:37.573Z,99.90
2018-03-18T00:05:03.788Z,99.90
2018-03-18T00:07:30.040Z,99.90
2018-03-18T00:09:56.236Z,99.90
2018-03-18T00:12:22.457Z,99.90
2018-03-18T00:14:49.392Z,99.90
2018-03-18T00:17:16.429Z,99.90
2018-03-18T00:19:42.630Z,99.90
2018-03-18T00:22:08.857Z,99.90
2018-03-18T00:24:35.084Z,99.90
2018-03-18T00:27:02.064Z,99.90
2018-03-18T00:29:28.705Z,99.90
2018-03-18T00:31:54.952Z,99.90
2018-03-18T00:34:21.912Z,99.90
2018-03-18T00:36:48.136Z,99.90
2018-03-18T00:39:14.340Z,99.90
2018-03-18T00:41:41.308Z,99.90
2018-03-18T00:44:07.521Z,99.90
2018-03-18T00:46:33.744Z,99.90
2018-03-18T00:49:00.785Z,99.90
2018-03-18T00:51:39.173Z,99.90
2018-03-18T00:54:05.404Z,99.90
2018-03-18T00:56:31.609Z,99.90
2018-03-18T00:58:58.146Z,99.90
2018-03-18T01:01:24.348Z,99.90
2018-03-18T01:03:50.581Z,99.90
2018-03-18T01:06:16.776Z,99.90
2018-03-18T01:08:43.024Z,99.90
2018-03-18T01:11:09.956Z,99.90
2018-03-18T01:13:36.176Z,99.90
2018-03-18T01:16:02.436Z,99.90
2018-03-18T01:18:29.375Z,99.90
2018-03-18T01:20:56.344Z,99.90
2018-03-18T01:23:22.547Z,99.90
2018-03-18T01:25:49.517Z,99.90
2018-03-18T01:28:15.707Z,99.90
2018-03-18T01:30:41.936Z,99.90
2018-03-18T01:33:08.170Z,99.90
2018-03-18T01:35:35.145Z,99.90
2018-03-18T01:38:01.336Z,99.90
2018-03-18T01:40:27.569Z,99.90
2018-03-18T01:42:53.768Z,99.90
2018-03-18T01:45:19.994Z,99.90
2018-03-18T01:47:46.189Z,99.90
2018-03-18T01:50:12.408Z,99.90
2018-03-18T01:52:38.703Z,99.90
2018-03-18T01:55:06.425Z,99.90
2018-03-18T01:57:32.624Z,99.90
2018-03-18T01:59:58.861Z,99.90
2018-03-18T02:02:25.793Z,99.90
2018-03-18T02:04:52.761Z,99.90
2018-03-18T02:07:19.021Z,99.90
2018-03-18T02:09:45.243Z,99.90
2018-03-18T02:12:11.807Z,99.90
2018-03-18T02:14:38.765Z,99.90
2018-03-18T02:17:05.594Z,99.90
2018-03-18T02:19:33.019Z,99.90
2018-03-18T02:21:59.690Z,99.90
2018-03-18T02:24:26.800Z,99.90
2018-03-18T02:26:53.004Z,99.90
2018-03-18T02:29:20.352Z,99.90
2018-03-18T02:31:47.321Z,99.90
2018-03-18T02:34:13.597Z,99.90
2018-03-18T02:36:39.842Z,99.90
2018-03-18T02:39:06.024Z,99.90
2018-03-18T02:41:32.250Z,99.90
2018-03-18T02:43:58.716Z,99.90
2018-03-18T02:46:24.908Z,99.90
2018-03-18T02:48:51.193Z,99.90
2018-03-18T02:51:17.408Z,99.90
2018-03-18T02:53:43.665Z,99.90
2018-03-18T02:56:09.898Z,99.90
2018-03-18T02:58:36.840Z,99.90
2018-03-18T03:01:03.073Z,99.90
2018-03-18T03:03:30.016Z,99.90
2018-03-18T03:05:56.985Z,99.90
2018-03-18T03:08:23.186Z,99.90
2018-03-18T03:10:50.420Z,99.90
2018-03-18T03:13:16.648Z,99.90
2018-03-18T03:15:42.842Z,99.90
2018-03-18T03:18:09.107Z,99.90
2018-03-18T03:20:35.301Z,99.90
2018-03-18T03:23:01.534Z,99.90
2018-03-18T03:25:27.733Z,99.90
2018-03-18T03:27:54.697Z,99.90
2018-03-18T03:30:20.886Z,99.90
2018-03-18T03:32:47.141Z,99.90
2018-03-18T03:35:13.348Z,99.90
2018-03-18T03:37:39.572Z,99.90
2018-03-18T03:40:05.764Z,99.90
2018-03-18T03:42:38.996Z,99.90
2018-03-18T03:45:05.198Z,99.90
2018-03-18T03:47:31.396Z,99.90
2018-03-18T03:49:57.616Z,99.90
2018-03-18T03:52:23.862Z,99.90
2018-03-18T03:54:50.051Z,99.90
2018-03-18T03:57:17.016Z,99.90
2018-03-18T03:59:43.216Z,99.90
2018-03-18T04:02:10.213Z,99.90
2018-03-18T04:04:36.416Z,99.90
2018-03-18T04:07:02.916Z,99.90
2018-03-18T04:09:29.112Z,99.90
2018-03-18T04:11:55.304Z,99.90
2018-03-18T04:14:21.528Z,99.90
2018-03-18T04:16:48.466Z,99.90
2018-03-18T04:19:15.441Z,99.90
2018-03-18T04:21:41.637Z,99.90
2018-03-18T04:24:08.612Z,99.90
2018-03-18T04:26:34.809Z,99.90
2018-03-18T04:29:01.037Z,99.90
2018-03-18T04:31:27.283Z,99.90
2018-03-18T04:33:54.288Z,99.90
2018-03-18T04:36:20.447Z,99.90
2018-03-18T04:38:47.460Z,99.90
2018-03-18T04:41:13.660Z,99.90
2018-03-18T04:43:39.855Z,99.90
2018-03-18T04:46:06.825Z,99.90
2018-03-18T04:48:33.031Z,99.90
2018-03-18T04:51:00.001Z,99.90
2018-03-18T04:53:26.189Z,99.90
2018-03-18T04:55:52.429Z,99.90
2018-03-18T04:58:19.364Z,99.90
2018-03-18T05:00:46.337Z,99.90
2018-03-18T05:03:12.545Z,99.90
2018-03-18T05:05:39.544Z,99.90
2018-03-18T05:08:05.737Z,99.90
2018-03-18T05:10:32.944Z,99.90
2018-03-18T05:12:59.200Z,99.90
2018-03-18T05:15:25.402Z,99.90
2018-03-18T05:17:51.636Z,99.90
2018-03-18T05:20:17.837Z,99.90
2018-03-18T05:22:44.065Z,99.90
2018-03-18T05:25:10.265Z,99.90
2018-03-18T05:27:37.236Z,99.90
2018-03-18T05:30:03.461Z,99.90
2018-03-18T05:32:29.755Z,99.90
2018-03-18T05:34:55.940Z,99.90
2018-03-18T05:37:22.162Z,99.90
2018-03-18T05:39:48.381Z,99.90
2018-03-18T05:42:15.644Z,99.90
2018-03-18T05:44:41.841Z,99.90
2018-03-18T05:47:08.801Z,99.90
2018-03-18T05:49:35.004Z,99.90
2018-03-18T05:52:01.967Z,99.90
2018-03-18T05:54:28.185Z,99.90
2018-03-18T05:56:55.173Z,99.90
2018-03-18T05:59:21.363Z,99.90
2018-03-18T06:01:48.337Z,99.90
2018-03-18T06:04:15.276Z,99.90
2018-03-18T06:06:41.500Z,99.90
2018-03-18T06:09:07.688Z,99.90
2018-03-18T06:11:33.919Z,99.90
2018-03-18T06:14:00.108Z,99.90
2018-03-18T06:16:26.332Z,99.90
2018-03-18T06:18:52.529Z,99.90
2018-03-18T06:21:19.500Z,99.90
2018-03-18T06:23:45.939Z,99.90
2018-03-18T06:26:12.161Z,99.90
2018-03-18T06:28:38.361Z,99.90
2018-03-18T06:31:05.351Z,99.90
2018-03-18T06:33:31.550Z,99.90
2018-03-18T06:35:57.780Z,99.90
2018-03-18T06:38:23.972Z,99.90
2018-03-18T06:40:51.701Z,99.90
2018-03-18T06:43:17.909Z,99.90
2018-03-18T06:45:44.129Z,99.90
2018-03-18T06:48:10.319Z,99.90
2018-03-18T06:50:37.280Z,99.90
2018-03-18T06:53:04.221Z,99.90
2018-03-18T06:55:30.458Z,99.90
2018-03-18T06:57:57.402Z,99.90
2018-03-18T07:00:24.481Z,99.90
2018-03-18T07:02:50.679Z,99.90
2018-03-18T07:05:16.972Z,99.90
2018-03-18T07:07:43.197Z,99.90
2018-03-18T07:10:09.397Z,99.90
2018-03-18T07:12:35.625Z,99.90
2018-03-18T07:15:01.883Z,99.90
2018-03-18T07:17:28.103Z,99.90
2018-03-18T07:19:54.305Z,99.90
2018-03-18T07:22:20.540Z,99.90
2018-03-18T07:24:46.757Z,99.90
2018-03-18T07:27:13.723Z,99.90
2018-03-18T07:29:39.949Z,99.90
2018-03-18T07:32:06.173Z,99.90
2018-03-18T07:34:32.368Z,99.90
2018-03-18T07:36:58.593Z,99.90
2018-03-18T07:39:24.798Z,99.90
2018-03-18T07:41:51.058Z,99.90
2018-03-18T07:44:17.265Z,99.90
2018-03-18T07:46:43.489Z,99.90
2018-03-18T07:49:09.693Z,99.90
2018-03-18T07:51:35.911Z,99.90
2018-03-18T07:54:02.105Z,99.90
2018-03-18T07:56:29.085Z,99.90
2018-03-18T07:58:55.272Z,99.90
2018-03-18T08:01:21.500Z,99.90
2018-03-18T08:03:47.697Z,99.90
2018-03-18T08:06:13.925Z,99.90
2018-03-18T08:08:40.157Z,99.90
2018-03-18T08:11:06.384Z,99.90
2018-03-18T08:13:32.572Z,99.90
2018-03-18T08:15:58.801Z,99.90
2018-03-18T08:18:25.740Z,99.90
2018-03-18T08:20:52.747Z,99.90
2018-03-18T08:23:18.945Z,99.90
2018-03-18T08:25:45.164Z,99.90
2018-03-18T08:28:11.360Z,99.90
2018-03-18T08:30:38.348Z,99.90
2018-03-18T08:33:04.547Z,99.90
2018-03-18T08:35:31.555Z,99.90
2018-03-18T08:37:57.749Z,99.90
2018-03-18T08:40:24.087Z,99.90
2018-03-18T08:42:50.277Z,99.90
2018-03-18T08:45:17.231Z,99.90
2018-03-18T08:47:44.253Z,99.90
2018-03-18T08:50:10.455Z,99.90
2018-03-18T08:52:36.695Z,99.90
2018-03-18T08:55:02.876Z,99.90
2018-03-18T08:57:29.105Z,99.90
2018-03-18T08:59:55.353Z,99.90
2018-03-18T09:02:21.613Z,99.90
2018-03-18T09:04:47.817Z,99.90
2018-03-18T09:07:14.044Z,99.90
2018-03-18T09:09:40.245Z,99.90
2018-03-18T09:12:06.473Z,99.90
2018-03-18T09:14:33.409Z,99.90
2018-03-18T09:17:00.379Z,99.90
2018-03-18T09:19:26.605Z,99.90
2018-03-18T09:21:52.845Z,99.90
2018-03-18T09:24:19.044Z,99.90
2018-03-18T09:26:46.041Z,99.90
2018-03-18T09:29:12.245Z,99.90
2018-03-18T09:31:38.468Z,99.90
2018-03-18T09:34:04.697Z,99.90
2018-03-18T09:36:30.945Z,99.90
2018-03-18T09:38:57.172Z,99.90
2018-03-18T09:41:23.369Z,99.90
2018-03-18T09:43:50.337Z,98.00
2018-03-18T09:46:16.584Z,98.10
2018-03-18T09:48:42.809Z,99.90
2018-03-18T09:51:09.010Z,97.80
2018-03-18T09:53:35.243Z,93.70
2018-03-18T09:56:01.433Z,92.40
2018-03-18T09:58:27.668Z,99.10
2018-03-18T10:00:54.612Z,92.40
2018-03-18T10:03:20.833Z,92.20
2018-03-18T10:05:47.038Z,93.90
2018-03-18T10:08:13.267Z,87.70
2018-03-18T10:10:39.461Z,89.20
2018-03-18T10:13:05.690Z,88.00
2018-03-18T10:15:31.885Z,86.20
2018-03-18T10:17:58.104Z,92.10
2018-03-18T10:20:24.328Z,88.40
2018-03-18T10:22:50.629Z,91.40
2018-03-18T10:25:16.829Z,92.20
2018-03-18T10:27:43.027Z,94.30
2018-03-18T10:30:09.280Z,96.50
2018-03-18T10:32:36.224Z,77.80
2018-03-18T10:35:03.209Z,79.50
2018-03-18T10:37:29.415Z,79.90
2018-03-18T10:39:55.653Z,71.80
2018-03-18T10:42:21.848Z,86.50
2018-03-18T10:44:48.812Z,88.80
2018-03-18T10:47:15.040Z,88.70
2018-03-18T10:49:41.290Z,89.40
2018-03-18T10:52:07.492Z,83.20
2018-03-18T10:54:34.465Z,82.10
2018-03-18T10:57:00.657Z,82.90
2018-03-18T10:59:27.618Z,77.20
2018-03-18T11:01:54.592Z,91.30
2018-03-18T11:04:20.798Z,91.50
2018-03-18T11:06:47.017Z,81.70
2018-03-18T11:09:13.241Z,85.90
2018-03-18T11:11:40.214Z,85.30
2018-03-18T11:14:06.443Z,85.40
2018-03-18T11:16:32.692Z,91.30
2018-03-18T11:18:58.945Z,84.80
2018-03-18T11:21:25.145Z,83.10
2018-03-18T11:23:51.434Z,76.90
2018-03-18T11:26:17.835Z,83.80
2018-03-18T11:28:44.104Z,70.50
2018-03-18T11:31:11.065Z,74.30
2018-03-18T11:33:37.312Z,73.90
2018-03-18T11:36:03.520Z,70.50
2018-03-18T11:38:29.745Z,77.00
2018-03-18T11:40:57.085Z,91.20
2018-03-18T11:43:24.044Z,88.00
2018-03-18T11:45:50.980Z,93.30
2018-03-18T11:48:17.944Z,81.00
2018-03-18T11:50:44.185Z,80.80
2018-03-18T11:53:10.465Z,91.60
2018-03-18T11:55:36.673Z,95.00
2018-03-18T11:58:03.644Z,64.40
2018-03-18T12:00:31.693Z,71.30
2018-03-18T12:02:57.908Z,72.30
2018-03-18T12:05:24.137Z,90.60
2018-03-18T12:07:50.321Z,83.10
2018-03-18T12:10:17.344Z,75.30
2018-03-18T12:12:43.532Z,75.70
2018-03-18T12:15:10.073Z,60.60
2018-03-18T12:17:36.264Z,59.10
2018-03-18T12:20:03.232Z,55.40
2018-03-18T12:22:29.430Z,54.70
2018-03-18T12:24:56.396Z,54.90
2018-03-18T12:27:22.601Z,55.00
2018-03-18T12:29:49.573Z,59.20
2018-03-18T12:32:15.788Z,58.70
2018-03-18T12:34:42.753Z,58.20
2018-03-18T12:37:08.957Z,59.50
2018-03-18T12:39:48.354Z,71.50
2018-03-18T12:42:27.797Z,64.20
2018-03-18T12:44:54.032Z,64.30
2018-03-18T12:47:20.353Z,58.60
2018-03-18T12:49:46.594Z,60.50
2018-03-18T12:52:13.542Z,63.20
2018-03-18T12:54:39.789Z,63.20
2018-03-18T12:57:05.994Z,67.20
2018-03-18T12:59:32.194Z,58.00
2018-03-18T13:01:58.425Z,56.20
2018-03-18T13:04:24.612Z,54.90
2018-03-18T13:06:51.707Z,57.40
2018-03-18T13:09:17.960Z,58.00
2018-03-18T13:11:44.157Z,52.20
2018-03-18T13:14:10.372Z,54.90
2018-03-18T13:16:36.625Z,51.30
2018-03-18T13:19:02.849Z,59.20
2018-03-18T13:21:29.045Z,60.90
2018-03-18T13:23:56.004Z,54.00
2018-03-18T13:26:22.213Z,54.20
2018-03-18T13:28:49.180Z,61.10
2018-03-18T13:31:15.407Z,61.50
2018-03-18T13:33:41.688Z,59.00
2018-03-18T13:36:08.721Z,55.10
2018-03-18T13:38:34.940Z,56.70
2018-03-18T13:41:01.132Z,61.90
2018-03-18T13:43:28.099Z,61.50
2018-03-18T13:45:54.297Z,60.90
2018-03-18T13:48:21.265Z,63.20
2018-03-18T13:50:47.459Z,62.80
2018-03-18T13:53:13.675Z,66.50
2018-03-18T13:55:39.864Z,66.20
2018-03-18T13:58:06.084Z,62.90
2018-03-18T14:00:32.284Z,59.60
2018-03-18T14:02:59.253Z,59.50
2018-03-18T14:05:25.461Z,59.90
2018-03-18T14:07:52.445Z,60.50
2018-03-18T14:10:18.638Z,61.20
2018-03-18T14:12:44.861Z,70.60
2018-03-18T14:15:11.805Z,68.70
2018-03-18T14:17:38.789Z,70.60
2018-03-18T14:20:04.989Z,70.50
2018-03-18T14:22:31.925Z,67.00
2018-03-18T14:24:58.893Z,72.10
2018-03-18T14:27:25.102Z,72.40
2018-03-18T14:29:51.320Z,72.90
2018-03-18T14:32:17.536Z,76.30
2018-03-18T14:34:43.764Z,66.90
2018-03-18T14:37:09.959Z,70.30
2018-03-18T14:39:36.209Z,72.40
2018-03-18T14:42:02.410Z,72.00
2018-03-18T14:44:28.637Z,76.10
2018-03-18T14:46:54.901Z,82.40
2018-03-18T14:49:21.129Z,79.70
2018-03-18T14:51:47.328Z,82.30
2018-03-18T14:54:13.562Z,93.10
2018-03-18T14:56:39.761Z,81.50
2018-03-18T14:59:06.752Z,92.10
2018-03-18T15:01:32.953Z,92.20
2018-03-18T15:03:59.234Z,96.20
2018-03-18T15:06:25.443Z,92.40
2018-03-18T15:08:51.789Z,90.80
2018-03-18T15:11:17.985Z,95.40
2018-03-18T15:13:44.180Z,94.10
2018-03-18T15:16:11.164Z,96.10
2018-03-18T15:18:37.356Z,96.00
2018-03-18T15:21:04.321Z,92.30
2018-03-18T15:23:30.656Z,92.80
2018-03-18T15:25:56.880Z,99.50
2018-03-18T15:28:23.339Z,95.20
2018-03-18T15:30:49.612Z,94.90
2018-03-18T15:33:15.813Z,99.00
2018-03-18T15:35:42.039Z,98.50
2018-03-18T15:38:08.264Z,96.50
2018-03-18T15:40:34.448Z,98.20
2018-03-18T15:43:01.384Z,98.70
2018-03-18T15:45:28.349Z,99.90
2018-03-18T15:47:54.551Z,99.90
2018-03-18T15:50:20.797Z,99.90
2018-03-18T15:52:47.731Z,99.80
2018-03-18T15:55:14.709Z,99.90
2018-03-18T15:57:40.914Z,99.90
2018-03-18T16:00:07.881Z,99.90
2018-03-18T16:02:34.070Z,99.90
2018-03-18T16:05:00.358Z,99.90
2018-03-18T16:07:26.545Z,99.90
2018-03-18T16:09:53.495Z,99.90
2018-03-18T16:12:20.432Z,99.90
2018-03-18T16:14:46.657Z,99.90
2018-03-18T16:17:12.856Z,99.90
2018-03-18T16:19:39.071Z,99.90
2018-03-18T16:22:05.284Z,99.90
2018-03-18T16:24:31.508Z,99.90
2018-03-18T16:26:57.705Z,99.90
2018-03-18T16:29:37.179Z,99.90
2018-03-18T16:32:03.410Z,99.90
2018-03-18T16:34:29.628Z,99.90
2018-03-18T16:36:55.821Z,99.90
2018-03-18T16:39:22.050Z,99.90
2018-03-18T16:41:48.244Z,99.90
2018-03-18T16:44:14.468Z,99.90
2018-03-18T16:46:40.661Z,99.90
2018-03-18T16:49:07.628Z,99.90
2018-03-18T16:51:33.819Z,99.90
2018-03-18T16:54:00.804Z,99.90
2018-03-18T16:56:26.996Z,99.90
2018-03-18T16:58:53.964Z,99.90
2018-03-18T17:01:20.154Z,99.90
2018-03-18T17:03:47.164Z,99.90
2018-03-18T17:06:13.358Z,99.90
2018-03-18T17:08:40.324Z,99.90
2018-03-18T17:11:06.508Z,99.90
2018-03-18T17:13:32.740Z,99.90
2018-03-18T17:15:58.928Z,99.90
2018-03-18T17:18:25.125Z,99.90
2018-03-18T17:20:52.085Z,99.90
2018-03-18T17:23:18.443Z,99.90
2018-03-18T17:25:44.640Z,99.90
2018-03-18T17:28:10.840Z,99.90
2018-03-18T17:30:37.851Z,99.90
2018-03-18T17:33:04.050Z,99.90
2018-03-18T17:35:30.272Z,99.90
2018-03-18T17:37:56.468Z,99.90
2018-03-18T17:40:22.701Z,99.90
2018-03-18T17:42:48.976Z,99.90
2018-03-18T17:45:27.405Z,99.90
2018-03-18T17:48:05.948Z,99.90
2018-03-18T17:50:44.621Z,99.90
2018-03-18T17:53:23.181Z,99.90
2018-03-18T17:55:49.444Z,99.90
2018-03-18T17:58:16.389Z,99.90
2018-03-18T18:00:43.376Z,99.90
2018-03-18T18:03:09.568Z,99.90
2018-03-18T18:05:36.536Z,99.90
2018-03-18T18:08:02.733Z,99.90
2018-03-18T18:10:29.713Z,99.90
2018-03-18T18:12:55.913Z,99.90
2018-03-18T18:15:22.884Z,99.90
2018-03-18T18:17:49.093Z,99.90
2018-03-18T18:20:16.404Z,99.90
2018-03-18T18:22:42.974Z,99.90
2018-03-18T18:25:09.237Z,99.90
2018-03-18T18:27:35.436Z,99.90
2018-03-18T18:30:02.417Z,99.90
2018-03-18T18:32:28.644Z,99.90
2018-03-18T18:34:54.864Z,99.90
2018-03-18T18:37:21.061Z,99.90
2018-03-18T18:39:47.290Z,99.90
2018-03-18T18:42:13.504Z,99.90
2018-03-18T18:44:39.752Z,99.90
2018-03-18T18:47:05.940Z,99.90
2018-03-18T18:49:32.181Z,99.90
2018-03-18T18:51:58.368Z,99.90
2018-03-18T18:54:24.590Z,99.90
2018-03-18T18:56:50.808Z,99.90
2018-03-18T18:59:17.777Z,99.90
2018-03-18T19:01:44.226Z,99.90
2018-03-18T19:04:10.452Z,99.90
2018-03-18T19:06:36.636Z,99.90
2018-03-18T19:09:03.636Z,99.90
2018-03-18T19:11:29.833Z,99.90
2018-03-18T19:13:56.052Z,99.90
2018-03-18T19:16:22.998Z,99.90
2018-03-18T19:18:49.977Z,99.90
2018-03-18T19:21:16.172Z,99.90
2018-03-18T19:23:43.133Z,99.90
2018-03-18T19:26:09.328Z,99.90
2018-03-18T19:28:35.558Z,99.90
2018-03-18T19:31:01.784Z,99.90
2018-03-18T19:33:28.760Z,99.90
2018-03-18T19:35:54.957Z,99.90
2018-03-18T19:38:21.180Z,99.90
2018-03-18T19:40:47.380Z,99.90
2018-03-18T19:43:13.596Z,99.90
2018-03-18T19:45:39.835Z,99.90
2018-03-18T19:48:06.802Z,99.90
2018-03-18T19:50:32.996Z,99.90
2018-03-18T19:52:59.225Z,99.90
2018-03-18T19:55:25.424Z,99.90
2018-03-18T19:57:52.388Z,99.90
2018-03-18T20:00:18.582Z,99.90
2018-03-18T20:02:44.789Z,99.90
2018-03-18T20:05:11.024Z,99.90
2018-03-18T20:07:37.233Z,99.90
2018-03-18T20:10:03.487Z,99.90
2018-03-18T20:12:29.716Z,99.90
2018-03-18T20:14:55.913Z,99.90
2018-03-18T20:17:22.141Z,99.90
2018-03-18T20:19:48.340Z,99.90
2018-03-18T20:22:15.293Z,99.90
2018-03-18T20:24:41.516Z,99.90
2018-03-18T20:27:07.721Z,99.90
2018-03-18T20:29:34.688Z,99.90
2018-03-18T20:32:01.653Z,99.90
2018-03-18T20:34:27.873Z,99.90
2018-03-18T20:36:54.093Z,99.90
2018-03-18T20:39:21.066Z,99.90
2018-03-18T20:41:47.260Z,99.90
2018-03-18T20:44:14.233Z,99.90
2018-03-18T20:46:40.423Z,99.90
2018-03-18T20:49:07.388Z,99.90
2018-03-18T20:51:34.336Z,99.90
2018-03-18T20:54:01.329Z,99.90
2018-03-18T20:56:27.525Z,99.90
2018-03-18T20:58:53.765Z,99.90
2018-03-18T21:01:19.992Z,99.90
2018-03-18T21:03:46.220Z,99.90
2018-03-18T21:06:12.425Z,99.90
2018-03-18T21:08:38.663Z,99.90
2018-03-18T21:11:04.856Z,99.90
2018-03-18T21:13:31.084Z,99.90
2018-03-18T21:15:57.394Z,99.90
2018-03-18T21:18:23.624Z,99.90
2018-03-18T21:20:49.828Z,99.90
2018-03-18T21:23:16.076Z,99.90
2018-03-18T21:25:42.264Z,99.90
2018-03-18T21:28:09.193Z,99.90
2018-03-18T21:30:36.196Z,99.90
2018-03-18T21:33:02.418Z,99.90
2018-03-18T21:35:28.685Z,99.90
2018-03-18T21:37:54.916Z,99.90
2018-03-18T21:40:21.145Z,99.90
2018-03-18T21:42:47.341Z,99.90
2018-03-18T21:45:13.567Z,99.90
2018-03-18T21:47:39.768Z,99.90
2018-03-18T21:50:06.012Z,99.90
2018-03-18T21:52:32.205Z,99.90
2018-03-18T21:54:59.421Z,99.90
2018-03-18T21:57:25.612Z,99.90
2018-03-18T21:59:51.805Z,99.90
2018-03-18T22:02:18.030Z,99.90
2018-03-18T22:04:44.252Z,99.90
2018-03-18T22:07:11.284Z,99.90
2018-03-18T22:09:37.484Z,99.90
2018-03-18T22:12:03.778Z,99.90
2018-03-18T22:14:30.709Z,99.90
2018-03-18T22:16:56.936Z,99.90
2018-03-18T22:19:23.132Z,99.90
2018-03-18T22:21:49.356Z,99.90
2018-03-18T22:24:15.549Z,99.90
2018-03-18T22:26:42.511Z,99.90
2018-03-18T22:29:08.708Z,99.90
2018-03-18T22:31:35.541Z,99.90
2018-03-18T22:34:01.737Z,99.90
2018-03-18T22:36:27.963Z,99.90
2018-03-18T22:38:54.180Z,99.90
2018-03-18T22:41:20.416Z,99.90
2018-03-18T22:43:46.608Z,99.90
2018-03-18T22:46:13.574Z,99.90
2018-03-18T22:48:39.777Z,99.90
2018-03-18T22:51:07.090Z,99.90
2018-03-18T22:53:33.285Z,99.90
2018-03-18T22:55:59.484Z,99.90
2018-03-18T22:58:26.453Z,99.90
2018-03-18T23:00:52.655Z,99.90
2018-03-18T23:03:19.629Z,99.90
2018-03-18T23:05:45.836Z,99.90
2018-03-18T23:08:12.804Z,99.90
2018-03-18T23:10:39.008Z,99.90
2018-03-18T23:13:05.973Z,99.90
2018-03-18T23:15:32.232Z,99.90
2018-03-18T23:17:58.476Z,99.90
2018-03-18T23:20:24.679Z,99.90
2018-03-18T23:22:50.919Z,99.90
2018-03-18T23:25:17.148Z,99.90
2018-03-18T23:27:43.371Z,99.90
2018-03-18T23:30:09.594Z,99.90
2018-03-18T23:32:35.844Z,99.90
2018-03-18T23:35:02.077Z,99.90
2018-03-18T23:37:28.313Z,99.90
2018-03-18T23:39:54.503Z,99.90
2018-03-18T23:42:20.726Z,99.90
2018-03-18T23:44:46.948Z,99.90
2018-03-18T23:47:13.180Z,99.90
2018-03-18T23:49:39.372Z,99.90
2018-03-18T23:52:05.596Z,99.90
2018-03-18T23:54:33.277Z,99.90
2018-03-18T23:57:00.250Z,99.90
2018-03-18T23:59:26.443Z,99.90
